sensor_id;sensor_type;location;lat;lon;timestamp;pressure;altitude;pressure_sealevel;temperature;humidity
52975;BME280;38839;45.186;5.720;2023-05-29T00:00:26;98963.31;;;17.38;nan
52975;BME280;38839;45.186;5.720;2023-05-29T00:02:52;98966.63;;;17.43;nan
52975;BME280;38839;45.186;5.720;2023-05-29T00:05:18;98963.19;;;17.41;nan
52975;BME280;38839;45.186;5.720;2023-05-29T00:07:43;98963.19;;;17.41;nan
52975;BME280;38839;45.186;5.720;2023-05-29T00:10:10;98959.53;;;17.45;nan
52975;BME280;38839;45.186;5.720;2023-05-29T00:12:37;98952.34;;;17.50;nan
52975;BME280;38839;45.186;5.720;2023-05-29T00:15:03;98955.03;;;17.48;nan
52975;BME280;38839;45.186;5.720;2023-05-29T00:17:31;98956.84;;;17.46;nan
52975;BME280;38839;45.186;5.720;2023-05-29T00:20:00;98949.97;;;17.42;nan
52975;BME280;38839;45.186;5.720;2023-05-29T00:22:27;98951.53;;;17.48;nan
52975;BME280;38839;45.186;5.720;2023-05-29T00:24:52;98951.34;;;17.53;nan
52975;BME280;38839;45.186;5.720;2023-05-29T00:27:18;98947.06;;;17.50;nan
52975;BME280;38839;45.186;5.720;2023-05-29T00:29:45;98952.34;;;17.50;nan
52975;BME280;38839;45.186;5.720;2023-05-29T00:32:10;98941.66;;;17.53;nan
52975;BME280;38839;45.186;5.720;2023-05-29T00:34:36;98939.19;;;17.48;nan
52975;BME280;38839;45.186;5.720;2023-05-29T00:37:01;98942.69;;;17.49;nan
52975;BME280;38839;45.186;5.720;2023-05-29T00:39:27;98943.72;;;17.45;nan
52975;BME280;38839;45.186;5.720;2023-05-29T00:41:52;98943.81;;;17.42;nan
52975;BME280;38839;45.186;5.720;2023-05-29T00:44:19;98940.16;;;17.46;nan
52975;BME280;38839;45.186;5.720;2023-05-29T00:46:46;98944.72;;;17.41;nan
52975;BME280;38839;45.186;5.720;2023-05-29T00:49:13;98935.09;;;17.40;nan
52975;BME280;38839;45.186;5.720;2023-05-29T00:51:38;98929.50;;;17.49;nan
52975;BME280;38839;45.186;5.720;2023-05-29T00:54:06;98923.19;;;17.53;nan
52975;BME280;38839;45.186;5.720;2023-05-29T00:56:33;98925.84;;;17.53;nan
52975;BME280;38839;45.186;5.720;2023-05-29T00:59:00;98923.31;;;17.50;nan
52975;BME280;38839;45.186;5.720;2023-05-29T01:01:26;98924.94;;;17.54;nan
52975;BME280;38839;45.186;5.720;2023-05-29T01:03:54;98925.75;;;17.56;nan
52975;BME280;38839;45.186;5.720;2023-05-29T01:06:20;98924.94;;;17.54;nan
52975;BME280;38839;45.186;5.720;2023-05-29T01:08:46;98926.34;;;17.39;nan
52975;BME280;38839;45.186;5.720;2023-05-29T01:12:07;98924.44;;;17.43;nan
52975;BME280;38839;45.186;5.720;2023-05-29T01:14:40;98921.97;;;17.38;nan
52975;BME280;38839;45.186;5.720;2023-05-29T01:17:25;98926.34;;;17.39;nan
52975;BME280;38839;45.186;5.720;2023-05-29T01:25:23;98921.50;;;17.27;nan
52975;BME280;38839;45.186;5.720;2023-05-29T01:27:49;98925.06;;;17.24;nan
52975;BME280;38839;45.186;5.720;2023-05-29T01:30:17;98929.66;;;17.19;nan
52975;BME280;38839;45.186;5.720;2023-05-29T01:32:44;98921.63;;;17.22;nan
52975;BME280;38839;45.186;5.720;2023-05-29T01:35:09;98933.25;;;17.17;nan
52975;BME280;38839;45.186;5.720;2023-05-29T01:37:35;98920.16;;;17.14;nan
52975;BME280;38839;45.186;5.720;2023-05-29T01:40:01;98927.63;;;17.01;nan
52975;BME280;38839;45.186;5.720;2023-05-29T01:42:28;98924.47;;;16.89;nan
52975;BME280;38839;45.186;5.720;2023-05-29T01:44:55;98914.66;;;16.95;nan
52975;BME280;38839;45.186;5.720;2023-05-29T01:47:22;98914.63;;;16.96;nan
52975;BME280;38839;45.186;5.720;2023-05-29T01:49:49;98912.59;;;17.04;nan
52975;BME280;38839;45.186;5.720;2023-05-29T01:52:16;98914.28;;;17.05;nan
52975;BME280;38839;45.186;5.720;2023-05-29T01:54:43;98917.09;;;17.01;nan
52975;BME280;38839;45.186;5.720;2023-05-29T01:57:08;98917.16;;;16.98;nan
52975;BME280;38839;45.186;5.720;2023-05-29T01:59:34;98915.34;;;17.00;nan
52975;BME280;38839;45.186;5.720;2023-05-29T02:02:10;98905.50;;;17.06;nan
52975;BME280;38839;45.186;5.720;2023-05-29T02:04:37;98903.47;;;17.15;nan
52975;BME280;38839;45.186;5.720;2023-05-29T02:07:03;98909.59;;;17.15;nan
52975;BME280;38839;45.186;5.720;2023-05-29T02:09:28;98908.03;;;17.08;nan
52975;BME280;38839;45.186;5.720;2023-05-29T02:11:54;98905.00;;;16.94;nan
52975;BME280;38839;45.186;5.720;2023-05-29T02:14:19;98902.44;;;16.92;nan
52975;BME280;38839;45.186;5.720;2023-05-29T02:16:45;98901.03;;;16.80;nan
52975;BME280;38839;45.186;5.720;2023-05-29T02:19:10;98915.50;;;16.67;nan
52975;BME280;38839;45.186;5.720;2023-05-29T02:21:39;98911.72;;;16.76;nan
52975;BME280;38839;45.186;5.720;2023-05-29T02:24:06;98910.69;;;16.81;nan
52975;BME280;38839;45.186;5.720;2023-05-29T02:26:32;98904.47;;;16.84;nan
52975;BME280;38839;45.186;5.720;2023-05-29T02:28:57;98906.19;;;16.85;nan
52975;BME280;38839;45.186;5.720;2023-05-29T02:31:23;98910.59;;;16.84;nan
52975;BME280;38839;45.186;5.720;2023-05-29T02:33:48;98907.84;;;16.87;nan
52975;BME280;38839;45.186;5.720;2023-05-29T02:36:14;98900.72;;;16.91;nan
52975;BME280;38839;45.186;5.720;2023-05-29T02:38:41;98903.34;;;16.91;nan
52975;BME280;38839;45.186;5.720;2023-05-29T02:41:06;98902.53;;;16.89;nan
52975;BME280;38839;45.186;5.720;2023-05-29T02:43:32;98895.75;;;16.82;nan
52975;BME280;38839;45.186;5.720;2023-05-29T02:45:57;98902.78;;;16.81;nan
52975;BME280;38839;45.186;5.720;2023-05-29T02:48:22;98903.72;;;16.79;nan
52975;BME280;38839;45.186;5.720;2023-05-29T02:50:48;98900.16;;;16.81;nan
52975;BME280;38839;45.186;5.720;2023-05-29T02:53:13;98903.66;;;16.80;nan
52975;BME280;38839;45.186;5.720;2023-05-29T02:55:39;98901.03;;;16.82;nan
52975;BME280;38839;45.186;5.720;2023-05-29T02:58:05;98902.94;;;16.75;nan
52975;BME280;38839;45.186;5.720;2023-05-29T03:00:30;98901.22;;;16.74;nan
52975;BME280;38839;45.186;5.720;2023-05-29T03:02:55;98900.50;;;16.69;nan
52975;BME280;38839;45.186;5.720;2023-05-29T03:05:21;98901.09;;;16.50;nan
52975;BME280;38839;45.186;5.720;2023-05-29T03:07:46;98900.69;;;16.06;nan
52975;BME280;38839;45.186;5.720;2023-05-29T03:10:12;98896.25;;;16.08;nan
52975;BME280;38839;45.186;5.720;2023-05-29T03:12:37;98897.69;;;16.19;nan
52975;BME280;38839;45.186;5.720;2023-05-29T03:15:03;98894.88;;;16.25;nan
52975;BME280;38839;45.186;5.720;2023-05-29T03:17:28;98891.13;;;16.04;nan
52975;BME280;38839;45.186;5.720;2023-05-29T03:19:54;98893.47;;;15.83;nan
52975;BME280;38839;45.186;5.720;2023-05-29T03:22:19;98900.47;;;15.83;nan
52975;BME280;38839;45.186;5.720;2023-05-29T03:24:45;98900.44;;;15.84;nan
52975;BME280;38839;45.186;5.720;2023-05-29T03:27:10;98899.22;;;15.96;nan
52975;BME280;38839;45.186;5.720;2023-05-29T03:29:35;98903.47;;;16.02;nan
52975;BME280;38839;45.186;5.720;2023-05-29T03:32:01;98907.19;;;15.93;nan
52975;BME280;38839;45.186;5.720;2023-05-29T03:34:27;98907.31;;;15.90;nan
52975;BME280;38839;45.186;5.720;2023-05-29T03:36:53;98900.22;;;15.92;nan
52975;BME280;38839;45.186;5.720;2023-05-29T03:39:18;98908.28;;;15.86;nan
52975;BME280;38839;45.186;5.720;2023-05-29T03:41:44;98910.97;;;15.84;nan
52975;BME280;38839;45.186;5.720;2023-05-29T03:44:09;98905.16;;;15.72;nan
52975;BME280;38839;45.186;5.720;2023-05-29T03:46:35;98893.16;;;15.61;nan
52975;BME280;38839;45.186;5.720;2023-05-29T03:49:00;98894.06;;;15.60;nan
52975;BME280;38839;45.186;5.720;2023-05-29T03:51:25;98893.84;;;15.68;nan
52975;BME280;38839;45.186;5.720;2023-05-29T03:53:51;98894.41;;;15.81;nan
52975;BME280;38839;45.186;5.720;2023-05-29T03:56:16;98899.47;;;15.87;nan
52975;BME280;38839;45.186;5.720;2023-05-29T03:58:41;98896.03;;;15.85;nan
52975;BME280;38839;45.186;5.720;2023-05-29T04:01:07;98902.19;;;15.85;nan
52975;BME280;38839;45.186;5.720;2023-05-29T04:03:33;98908.13;;;15.92;nan
52975;BME280;38839;45.186;5.720;2023-05-29T04:05:59;98899.44;;;15.88;nan
52975;BME280;38839;45.186;5.720;2023-05-29T04:08:24;98903.53;;;15.99;nan
52975;BME280;38839;45.186;5.720;2023-05-29T04:10:50;98904.53;;;15.95;nan
52975;BME280;38839;45.186;5.720;2023-05-29T04:13:19;98910.28;;;15.78;nan
52975;BME280;38839;45.186;5.720;2023-05-29T04:15:44;98917.66;;;15.63;nan
52975;BME280;38839;45.186;5.720;2023-05-29T04:18:10;98912.53;;;15.59;nan
52975;BME280;38839;45.186;5.720;2023-05-29T04:20:35;98923.81;;;15.62;nan
52975;BME280;38839;45.186;5.720;2023-05-29T04:23:00;98926.44;;;15.62;nan
52975;BME280;38839;45.186;5.720;2023-05-29T04:25:26;98927.88;;;15.76;nan
52975;BME280;38839;45.186;5.720;2023-05-29T04:27:51;98937.94;;;15.91;nan
52975;BME280;38839;45.186;5.720;2023-05-29T04:30:17;98934.06;;;16.04;nan
52975;BME280;38839;45.186;5.720;2023-05-29T04:32:42;98938.97;;;16.17;nan
52975;BME280;38839;45.186;5.720;2023-05-29T04:35:08;98932.75;;;16.19;nan
52975;BME280;38839;45.186;5.720;2023-05-29T04:37:34;98938.13;;;15.85;nan
52975;BME280;38839;45.186;5.720;2023-05-29T04:40:07;98939.50;;;15.98;nan
52975;BME280;38839;45.186;5.720;2023-05-29T04:42:37;98940.88;;;16.12;nan
52975;BME280;38839;45.186;5.720;2023-05-29T04:45:03;98945.78;;;16.24;nan
52975;BME280;38839;45.186;5.720;2023-05-29T04:47:31;98940.03;;;16.41;nan
52975;BME280;38839;45.186;5.720;2023-05-29T04:49:59;98946.03;;;16.44;nan
52975;BME280;38839;45.186;5.720;2023-05-29T04:52:25;98948.59;;;16.47;nan
52975;BME280;38839;45.186;5.720;2023-05-29T04:54:51;98948.84;;;16.68;nan
52975;BME280;38839;45.186;5.720;2023-05-29T04:57:17;98942.38;;;16.78;nan
52975;BME280;38839;45.186;5.720;2023-05-29T04:59:42;98942.66;;;16.97;nan
52975;BME280;38839;45.186;5.720;2023-05-29T05:02:08;98944.81;;;17.39;nan
52975;BME280;38839;45.186;5.720;2023-05-29T05:04:34;98944.94;;;17.86;nan
52975;BME280;38839;45.186;5.720;2023-05-29T05:07:00;98954.06;;;18.01;nan
52975;BME280;38839;45.186;5.720;2023-05-29T05:09:25;98948.78;;;18.01;nan
52975;BME280;38839;45.186;5.720;2023-05-29T05:11:51;98949.00;;;18.42;nan
52975;BME280;38839;45.186;5.720;2023-05-29T05:14:17;98947.72;;;18.98;nan
52975;BME280;38839;45.186;5.720;2023-05-29T05:16:42;98951.75;;;19.07;nan
52975;BME280;38839;45.186;5.720;2023-05-29T05:19:07;98957.78;;;19.10;nan
52975;BME280;38839;45.186;5.720;2023-05-29T05:21:33;98958.13;;;18.81;nan
52975;BME280;38839;45.186;5.720;2023-05-29T05:23:59;98954.50;;;18.60;nan
52975;BME280;38839;45.186;5.720;2023-05-29T05:26:25;98957.25;;;19.02;nan
52975;BME280;38839;45.186;5.720;2023-05-29T05:28:51;98958.03;;;19.47;nan
52975;BME280;38839;45.186;5.720;2023-05-29T05:31:17;98960.56;;;19.70;nan
52975;BME280;38839;45.186;5.720;2023-05-29T05:33:43;98953.38;;;20.14;nan
52975;BME280;38839;45.186;5.720;2023-05-29T05:36:08;98960.34;;;20.73;nan
52975;BME280;38839;45.186;5.720;2023-05-29T05:38:34;98952.03;;;21.35;nan
52975;BME280;38839;45.186;5.720;2023-05-29T05:40:59;98957.81;;;21.95;nan
52975;BME280;38839;45.186;5.720;2023-05-29T05:43:24;98951.25;;;22.36;nan
52975;BME280;38839;45.186;5.720;2023-05-29T05:45:52;98945.09;;;23.59;nan
52975;BME280;38839;45.186;5.720;2023-05-29T05:48:17;98946.19;;;25.26;nan
52975;BME280;38839;45.186;5.720;2023-05-29T05:50:43;98938.28;;;26.78;nan
52975;BME280;38839;45.186;5.720;2023-05-29T05:53:08;98945.59;;;28.06;nan
52975;BME280;38839;45.186;5.720;2023-05-29T05:55:34;98943.66;;;28.54;nan
52975;BME280;38839;45.186;5.720;2023-05-29T05:57:59;98947.03;;;29.43;nan
52975;BME280;38839;45.186;5.720;2023-05-29T06:00:24;98936.97;;;29.98;nan
52975;BME280;38839;45.186;5.720;2023-05-29T06:02:51;98933.91;;;30.43;nan
52975;BME280;38839;45.186;5.720;2023-05-29T06:05:19;98932.09;;;30.94;nan
52975;BME280;38839;45.186;5.720;2023-05-29T06:07:44;98933.34;;;29.25;nan
52975;BME280;38839;45.186;5.720;2023-05-29T06:10:10;98926.38;;;28.79;nan
52975;BME280;38839;45.186;5.720;2023-05-29T06:12:36;98932.47;;;26.84;nan
52975;BME280;38839;45.186;5.720;2023-05-29T06:15:01;98927.63;;;26.89;nan
52975;BME280;38839;45.186;5.720;2023-05-29T06:17:28;98935.19;;;25.96;nan
52975;BME280;38839;45.186;5.720;2023-05-29T06:19:53;98931.78;;;26.07;nan
52975;BME280;38839;45.186;5.720;2023-05-29T06:22:20;98941.31;;;27.22;nan
52975;BME280;38839;45.186;5.720;2023-05-29T06:24:45;98933.88;;;29.40;nan
52975;BME280;38839;45.186;5.720;2023-05-29T06:27:10;98934.03;;;28.95;nan
52975;BME280;38839;45.186;5.720;2023-05-29T06:29:38;98932.22;;;29.27;nan
52975;BME280;38839;45.186;5.720;2023-05-29T06:32:04;98932.53;;;29.87;nan
52975;BME280;38839;45.186;5.720;2023-05-29T06:34:33;98937.59;;;29.81;nan
52975;BME280;38839;45.186;5.720;2023-05-29T06:37:02;98932.88;;;28.20;nan
52975;BME280;38839;45.186;5.720;2023-05-29T06:39:27;98929.31;;;26.29;nan
52975;BME280;38839;45.186;5.720;2023-05-29T08:50:05;98887.13;;;26.33;nan
52975;BME280;38839;45.186;5.720;2023-05-29T08:52:34;98879.81;;;25.98;nan
52975;BME280;38839;45.186;5.720;2023-05-29T08:55:02;98877.59;;;26.29;nan
52975;BME280;38839;45.186;5.720;2023-05-29T08:57:29;98882.47;;;26.61;nan
52975;BME280;38839;45.186;5.720;2023-05-29T08:59:56;98878.06;;;26.60;nan
52975;BME280;38839;45.186;5.720;2023-05-29T09:02:22;98880.03;;;27.17;nan
52975;BME280;38839;45.186;5.720;2023-05-29T09:04:48;98879.81;;;25.98;nan
52975;BME280;38839;45.186;5.720;2023-05-29T09:07:19;98876.72;;;26.41;nan
52975;BME280;38839;45.186;5.720;2023-05-29T09:09:46;98882.06;;;27.02;nan
52975;BME280;38839;45.186;5.720;2023-05-29T09:12:11;98872.53;;;26.13;nan
52975;BME280;38839;45.186;5.720;2023-05-29T09:14:42;98870.00;;;25.60;nan
52975;BME280;38839;45.186;5.720;2023-05-29T09:17:09;98875.63;;;26.57;nan
52975;BME280;38839;45.186;5.720;2023-05-29T09:19:36;98875.63;;;29.08;nan
52975;BME280;38839;45.186;5.720;2023-05-29T09:22:07;98861.72;;;30.78;nan
52975;BME280;38839;45.186;5.720;2023-05-29T09:24:36;98865.84;;;30.22;nan
52975;BME280;38839;45.186;5.720;2023-05-29T09:27:02;98869.97;;;28.35;nan
52975;BME280;38839;45.186;5.720;2023-05-29T09:29:33;98868.78;;;27.01;nan
52975;BME280;38839;45.186;5.720;2023-05-29T09:31:59;98871.66;;;26.13;nan
52975;BME280;38839;45.186;5.720;2023-05-29T09:34:26;98867.94;;;25.25;nan
52975;BME280;38839;45.186;5.720;2023-05-29T09:37:01;98869.94;;;25.22;nan
52975;BME280;38839;45.186;5.720;2023-05-29T09:39:33;98870.00;;;25.07;nan
52975;BME280;38839;45.186;5.720;2023-05-29T09:41:59;98869.25;;;25.05;nan
52975;BME280;38839;45.186;5.720;2023-05-29T09:44:26;98864.97;;;25.03;nan
52975;BME280;38839;45.186;5.720;2023-05-29T09:46:57;98864.50;;;25.23;nan
52975;BME280;38839;45.186;5.720;2023-05-29T09:49:23;98865.38;;;24.97;nan
52975;BME280;38839;45.186;5.720;2023-05-29T09:51:53;98858.88;;;25.54;nan
52975;BME280;38839;45.186;5.720;2023-05-29T09:54:19;98855.66;;;25.61;nan
52975;BME280;38839;45.186;5.720;2023-05-29T09:56:45;98846.78;;;25.86;nan
52975;BME280;38839;45.186;5.720;2023-05-29T09:59:13;98854.44;;;26.17;nan
52975;BME280;38839;45.186;5.720;2023-05-29T10:01:40;98844.06;;;26.12;nan
52975;BME280;38839;45.186;5.720;2023-05-29T10:04:07;98846.66;;;25.88;nan
52975;BME280;38839;45.186;5.720;2023-05-29T10:06:36;98852.78;;;26.03;nan
52975;BME280;38839;45.186;5.720;2023-05-29T10:09:02;98843.06;;;25.76;nan
52975;BME280;38839;45.186;5.720;2023-05-29T10:11:31;98837.06;;;25.21;nan
52975;BME280;38839;45.186;5.720;2023-05-29T10:13:59;98837.16;;;25.33;nan
52975;BME280;38839;45.186;5.720;2023-05-29T10:16:25;98832.38;;;25.25;nan
52975;BME280;38839;45.186;5.720;2023-05-29T10:18:55;98837.69;;;25.63;nan
52975;BME280;38839;45.186;5.720;2023-05-29T10:21:22;98822.31;;;25.67;nan
52975;BME280;38839;45.186;5.720;2023-05-29T10:23:50;98830.69;;;25.49;nan
52975;BME280;38839;45.186;5.720;2023-05-29T10:26:24;98833.88;;;25.29;nan
52975;BME280;38839;45.186;5.720;2023-05-29T10:32:16;98826.72;;;25.42;nan
52975;BME280;38839;45.186;5.720;2023-05-29T10:34:57;98818.91;;;25.65;nan
52975;BME280;38839;45.186;5.720;2023-05-29T10:40:07;98813.63;;;25.89;nan
52975;BME280;38839;45.186;5.720;2023-05-29T10:42:48;98812.25;;;25.96;nan
52975;BME280;38839;45.186;5.720;2023-05-29T10:50:38;98805.66;;;25.38;nan
52975;BME280;38839;45.186;5.720;2023-05-29T10:53:09;98809.03;;;25.14;nan
52975;BME280;38839;45.186;5.720;2023-05-29T10:55:39;98801.84;;;25.02;nan
52975;BME280;38839;45.186;5.720;2023-05-29T10:58:12;98799.09;;;25.16;nan
52975;BME280;38839;45.186;5.720;2023-05-29T11:00:42;98799.22;;;25.15;nan
52975;BME280;38839;45.186;5.720;2023-05-29T11:03:08;98802.19;;;25.10;nan
52975;BME280;38839;45.186;5.720;2023-05-29T11:05:34;98796.25;;;25.32;nan
52975;BME280;38839;45.186;5.720;2023-05-29T11:08:00;98787.41;;;25.44;nan
52975;BME280;38839;45.186;5.720;2023-05-29T11:10:55;98793.91;;;25.53;nan
52975;BME280;38839;45.186;5.720;2023-05-29T11:13:35;98786.75;;;25.66;nan
52975;BME280;38839;45.186;5.720;2023-05-29T11:16:05;98786.06;;;25.76;nan
52975;BME280;38839;45.186;5.720;2023-05-29T11:18:31;98782.00;;;25.96;nan
52975;BME280;38839;45.186;5.720;2023-05-29T11:21:03;98780.63;;;25.90;nan
52975;BME280;38839;45.186;5.720;2023-05-29T11:23:32;98774.94;;;25.82;nan
52975;BME280;38839;45.186;5.720;2023-05-29T11:25:59;98771.66;;;25.65;nan
52975;BME280;38839;45.186;5.720;2023-05-29T11:28:24;98768.47;;;25.60;nan
52975;BME280;38839;45.186;5.720;2023-05-29T11:30:51;98762.38;;;25.58;nan
52975;BME280;38839;45.186;5.720;2023-05-29T11:33:25;98758.94;;;25.69;nan
52975;BME280;38839;45.186;5.720;2023-05-29T11:35:56;98741.28;;;25.92;nan
52975;BME280;38839;45.186;5.720;2023-05-29T11:38:24;98752.78;;;26.05;nan
52975;BME280;38839;45.186;5.720;2023-05-29T11:40:54;98753.75;;;26.04;nan
52975;BME280;38839;45.186;5.720;2023-05-29T11:43:22;98744.31;;;26.12;nan
52975;BME280;38839;45.186;5.720;2023-05-29T11:45:48;98745.97;;;26.25;nan
52975;BME280;38839;45.186;5.720;2023-05-29T11:48:13;98738.72;;;26.39;nan
52975;BME280;38839;45.186;5.720;2023-05-29T11:50:39;98736.50;;;26.33;nan
52975;BME280;38839;45.186;5.720;2023-05-29T11:53:06;98735.59;;;26.21;nan
52975;BME280;38839;45.186;5.720;2023-05-29T11:55:33;98737.31;;;26.22;nan
52975;BME280;38839;45.186;5.720;2023-05-29T11:58:00;98724.63;;;26.37;nan
52975;BME280;38839;45.186;5.720;2023-05-29T12:00:30;98728.56;;;26.55;nan
52975;BME280;38839;45.186;5.720;2023-05-29T12:02:57;98721.47;;;26.67;nan
52975;BME280;38839;45.186;5.720;2023-05-29T12:05:23;98712.47;;;26.68;nan
52975;BME280;38839;45.186;5.720;2023-05-29T12:07:52;98721.69;;;26.64;nan
52975;BME280;38839;45.186;5.720;2023-05-29T12:10:20;98711.47;;;26.58;nan
52975;BME280;38839;45.186;5.720;2023-05-29T12:12:54;98704.59;;;26.54;nan
52975;BME280;38839;45.186;5.720;2023-05-29T12:15:20;98706.06;;;26.46;nan
52975;BME280;38839;45.186;5.720;2023-05-29T12:17:48;98697.31;;;26.56;nan
52975;BME280;38839;45.186;5.720;2023-05-29T12:20:14;98696.19;;;26.71;nan
52975;BME280;38839;45.186;5.720;2023-05-29T12:22:41;98695.72;;;26.77;nan
52975;BME280;38839;45.186;5.720;2023-05-29T12:25:14;98702.28;;;26.73;nan
52975;BME280;38839;45.186;5.720;2023-05-29T12:27:41;98696.28;;;26.58;nan
52975;BME280;38839;45.186;5.720;2023-05-29T12:30:11;98688.34;;;26.57;nan
52975;BME280;38839;45.186;5.720;2023-05-29T12:32:38;98693.63;;;26.58;nan
52975;BME280;38839;45.186;5.720;2023-05-29T12:35:17;98687.38;;;26.93;nan
52975;BME280;38839;45.186;5.720;2023-05-29T12:37:57;98693.84;;;27.24;nan
52975;BME280;38839;45.186;5.720;2023-05-29T12:40:28;98688.75;;;27.33;nan
52975;BME280;38839;45.186;5.720;2023-05-29T12:42:59;98688.84;;;27.20;nan
52975;BME280;38839;45.186;5.720;2023-05-29T12:45:26;98683.44;;;26.86;nan
52975;BME280;38839;45.186;5.720;2023-05-29T12:47:59;98673.69;;;26.74;nan
52975;BME280;38839;45.186;5.720;2023-05-29T12:53:06;98658.38;;;26.98;nan
52975;BME280;38839;45.186;5.720;2023-05-29T12:55:36;98673.00;;;27.05;nan
52975;BME280;38839;45.186;5.720;2023-05-29T12:58:03;98664.81;;;26.73;nan
52975;BME280;38839;45.186;5.720;2023-05-29T13:00:29;98673.16;;;26.57;nan
52975;BME280;38839;45.186;5.720;2023-05-29T13:02:56;98673.69;;;26.74;nan
52975;BME280;38839;45.186;5.720;2023-05-29T13:05:22;98671.16;;;26.83;nan
52975;BME280;38839;45.186;5.720;2023-05-29T13:07:49;98664.34;;;26.90;nan
52975;BME280;38839;45.186;5.720;2023-05-29T13:10:16;98669.22;;;26.97;nan
52975;BME280;38839;45.186;5.720;2023-05-29T13:12:42;98665.56;;;26.86;nan
52975;BME280;38839;45.186;5.720;2023-05-29T13:15:09;98663.59;;;26.77;nan
52975;BME280;38839;45.186;5.720;2023-05-29T13:17:35;98657.50;;;26.64;nan
52975;BME280;38839;45.186;5.720;2023-05-29T13:20:00;98656.53;;;26.76;nan
52975;BME280;38839;45.186;5.720;2023-05-29T13:22:26;98661.06;;;27.21;nan
52975;BME280;38839;45.186;5.720;2023-05-29T13:24:57;98659.75;;;27.38;nan
52975;BME280;38839;45.186;5.720;2023-05-29T13:27:23;98650.63;;;27.40;nan
52975;BME280;38839;45.186;5.720;2023-05-29T13:29:49;98652.66;;;27.48;nan
52975;BME280;38839;45.186;5.720;2023-05-29T13:32:14;98652.91;;;27.56;nan
52975;BME280;38839;45.186;5.720;2023-05-29T13:34:40;98653.44;;;27.27;nan
52975;BME280;38839;45.186;5.720;2023-05-29T13:37:05;98641.59;;;27.19;nan
52975;BME280;38839;45.186;5.720;2023-05-29T13:39:31;98650.16;;;27.24;nan
52975;BME280;38839;45.186;5.720;2023-05-29T13:41:56;98637.22;;;27.06;nan
52975;BME280;38839;45.186;5.720;2023-05-29T13:44:21;98644.66;;;27.14;nan
52975;BME280;38839;45.186;5.720;2023-05-29T13:46:47;98636.13;;;27.20;nan
52975;BME280;38839;45.186;5.720;2023-05-29T13:49:12;98632.25;;;27.24;nan
52975;BME280;38839;45.186;5.720;2023-05-29T13:51:37;98634.19;;;27.34;nan
52975;BME280;38839;45.186;5.720;2023-05-29T13:54:03;98635.28;;;27.31;nan
52975;BME280;38839;45.186;5.720;2023-05-29T13:56:29;98635.41;;;27.41;nan
52975;BME280;38839;45.186;5.720;2023-05-29T13:58:55;98634.16;;;27.56;nan
52975;BME280;38839;45.186;5.720;2023-05-29T14:01:21;98628.72;;;27.79;nan
52975;BME280;38839;45.186;5.720;2023-05-29T14:03:47;98622.75;;;27.98;nan
52975;BME280;38839;45.186;5.720;2023-05-29T14:06:12;98634.34;;;27.76;nan
52975;BME280;38839;45.186;5.720;2023-05-29T14:08:38;98628.50;;;27.70;nan
52975;BME280;38839;45.186;5.720;2023-05-29T14:11:03;98624.66;;;27.63;nan
52975;BME280;38839;45.186;5.720;2023-05-29T14:13:29;98630.47;;;27.68;nan
52975;BME280;38839;45.186;5.720;2023-05-29T14:15:54;98634.63;;;27.50;nan
52975;BME280;38839;45.186;5.720;2023-05-29T14:18:22;98631.72;;;27.42;nan
52975;BME280;38839;45.186;5.720;2023-05-29T14:20:47;98632.72;;;26.96;nan
52975;BME280;38839;45.186;5.720;2023-05-29T14:23:14;98637.72;;;27.12;nan
52975;BME280;38839;45.186;5.720;2023-05-29T14:25:41;98639.66;;;27.09;nan
52975;BME280;38839;45.186;5.720;2023-05-29T14:28:06;98636.59;;;27.03;nan
52975;BME280;38839;45.186;5.720;2023-05-29T14:30:32;98635.75;;;26.80;nan
52975;BME280;38839;45.186;5.720;2023-05-29T14:32:57;98635.84;;;26.67;nan
52975;BME280;38839;45.186;5.720;2023-05-29T14:35:23;98634.09;;;26.55;nan
52975;BME280;38839;45.186;5.720;2023-05-29T14:37:48;98632.44;;;26.76;nan
52975;BME280;38839;45.186;5.720;2023-05-29T14:40:14;98637.09;;;26.97;nan
52975;BME280;38839;45.186;5.720;2023-05-29T14:42:39;98637.34;;;26.94;nan
52975;BME280;38839;45.186;5.720;2023-05-29T14:45:05;98641.25;;;26.89;nan
52975;BME280;38839;45.186;5.720;2023-05-29T14:47:30;98644.50;;;26.71;nan
52975;BME280;38839;45.186;5.720;2023-05-29T14:49:56;98646.94;;;26.38;nan
52975;BME280;38839;45.186;5.720;2023-05-29T14:52:21;98651.78;;;25.98;nan
52975;BME280;38839;45.186;5.720;2023-05-29T14:54:46;98650.31;;;25.57;nan
52975;BME280;38839;45.186;5.720;2023-05-29T14:57:12;98662.78;;;24.94;nan
52975;BME280;38839;45.186;5.720;2023-05-29T14:59:37;98668.69;;;24.33;nan
52975;BME280;38839;45.186;5.720;2023-05-29T15:02:03;98671.50;;;23.77;nan
52975;BME280;38839;45.186;5.720;2023-05-29T15:04:28;98671.22;;;23.53;nan
52975;BME280;38839;45.186;5.720;2023-05-29T15:06:54;98675.72;;;23.38;nan
52975;BME280;38839;45.186;5.720;2023-05-29T15:09:20;98684.94;;;23.47;nan
52975;BME280;38839;45.186;5.720;2023-05-29T15:11:46;98693.66;;;23.49;nan
52975;BME280;38839;45.186;5.720;2023-05-29T15:14:11;98692.81;;;23.48;nan
52975;BME280;38839;45.186;5.720;2023-05-29T15:16:37;98694.06;;;23.43;nan
52975;BME280;38839;45.186;5.720;2023-05-29T15:19:02;98697.81;;;23.67;nan
52975;BME280;38839;45.186;5.720;2023-05-29T15:21:28;98690.78;;;23.66;nan
52975;BME280;38839;45.186;5.720;2023-05-29T15:23:54;98686.50;;;23.64;nan
52975;BME280;38839;45.186;5.720;2023-05-29T15:26:20;98681.22;;;23.49;nan
52975;BME280;38839;45.186;5.720;2023-05-29T15:28:45;98685.22;;;23.42;nan
52975;BME280;38839;45.186;5.720;2023-05-29T15:31:11;98691.78;;;23.22;nan
52975;BME280;38839;45.186;5.720;2023-05-29T15:33:36;98699.31;;;23.16;nan
52975;BME280;38839;45.186;5.720;2023-05-29T15:36:01;98696.44;;;23.19;nan
52975;BME280;38839;45.186;5.720;2023-05-29T15:38:27;98694.75;;;23.18;nan
52975;BME280;38839;45.186;5.720;2023-05-29T15:40:52;98698.06;;;23.07;nan
52975;BME280;38839;45.186;5.720;2023-05-29T15:43:23;98697.03;;;23.09;nan
52975;BME280;38839;45.186;5.720;2023-05-29T15:45:49;98699.56;;;23.11;nan
52975;BME280;38839;45.186;5.720;2023-05-29T15:48:14;98695.78;;;23.15;nan